Yeso, New Mexico
Current Conditions -  °F | °C
As of 12:56 AM on Monday 24 Nov 2014 (Local Time) from K4MR Reporting Station
Scattered Clouds Scattered Clouds  
Wind Chill: 24°   Ceiling: Unl
Heat Index: 33°   Visibility: 10mi
Dew Point: 28°   Wind: 12mph
Humidity: 83%   Direction: 250°WSW
Pressure: 29.99"   Gusts: NA
Location:  34.44°N, 104.61°W
Report Text: K4MR 240756Z AUTO 25010KT 10SM SCT085 01/M02 A2999 RMK AO2 SLP153 T00051021
Loading
Personal Weather Stations






























Interactive Weather Map New forecast layout! Learn more

10-Day Weather Forecast

Advertisements
Track Severe Weather on mobile